Aviation Digital Data Service (ADDS)

Output produced by METARs form (0152 UTC 27 September 2016)
found at http://www.aviationweather.gov/adds/metars/
 
SEGU 270100Z 21011KT 9999 BKN040 26/21 Q1010 NOSIG RMK A2984
SEGU 262240Z 2700/2724 230010KT 9999 SCT020 SCT100 
     FM270600 18004KT 9999 BKN020 BKN100 
     PROB30 2708/2711 -RA 
     FM271200 22004KT 9999 BKN020 SCT100 
     TEMPO 2715/2718 SCT020 
     FM271800 13006KT 9999 SCT020 SCT100 TX30/2720Z TN22/2710Z
       
SEMT 270100Z 24010KT 9999 OVC026 23/21 Q1012 RMK A2989
SEMT 262240Z 2700/2724 22010KT 9999 BKN023 SCT100 
     FM271500 28010KT 9999 SCT020 TX29/2720Z TN22/2710Z